Time;durP1;ratioP1;P1;durP2;ratioP2;P2;SDS_P1;SDS_P2;PMS_P1;PMS_P2;Temp;Humidity;BMP_temperature;BMP_pressure;BME280_temperature;BME280_humidity;BME280_pressure;Samples;Min_cycle;Max_cycle;Signal;HPM_P1;HPM_P2
2021/12/01 00:01:22;;;;;;;0.30;0.30;;;5.30;94.70;;;;;;5081881;28;20710;-85
2021/12/01 00:03:49;;;;;;;0.40;0.40;;;5.30;94.60;;;;;;5074460;28;20233;-86
2021/12/01 00:06:16;;;;;;;0.40;0.40;;;5.30;94.50;;;;;;5058283;28;20699;-86
2021/12/01 00:08:43;;;;;;;0.30;0.30;;;5.30;94.20;;;;;;5065847;28;20200;-88
2021/12/01 00:11:11;;;;;;;0.43;0.43;;;5.30;94.20;;;;;;5059361;28;20221;-83
2021/12/01 00:13:39;;;;;;;0.40;0.40;;;5.30;94.10;;;;;;5058465;28;20201;-87
2021/12/01 00:16:07;;;;;;;0.40;0.40;;;5.40;94.10;;;;;;5069852;28;20226;-85
2021/12/01 00:18:35;;;;;;;0.40;0.40;;;5.40;94.10;;;;;;5070553;28;20208;-86
2021/12/01 00:21:02;;;;;;;0.33;0.33;;;5.40;93.90;;;;;;5072904;28;20228;-87
2021/12/01 00:23:29;;;;;;;0.30;0.30;;;5.50;93.90;;;;;;5063048;28;20645;-87
2021/12/01 00:25:56;;;;;;;0.60;0.40;;;5.40;94.10;;;;;;5072107;28;20228;-86
2021/12/01 00:28:25;;;;;;;0.40;0.40;;;5.30;94.30;;;;;;5065133;28;20194;-86
2021/12/01 00:30:53;;;;;;;0.30;0.30;;;5.30;94.40;;;;;;5068095;28;20231;-84
2021/12/01 00:33:22;;;;;;;0.77;0.47;;;5.30;95.10;;;;;;5072613;28;20549;-86
2021/12/01 00:35:51;;;;;;;1.90;0.50;;;5.20;95.10;;;;;;5064464;28;20584;-86
2021/12/01 00:38:18;;;;;;;0.40;0.40;;;5.20;95.80;;;;;;5067765;28;20198;-87
2021/12/01 00:40:56;;;;;;;0.40;0.40;;;5.20;95.60;;;;;;5062128;28;20239;-86
2021/12/01 00:43:26;;;;;;;0.40;0.40;;;5.10;95.60;;;;;;5062716;28;20219;-84
2021/12/01 00:45:56;;;;;;;0.60;0.60;;;5.10;95.70;;;;;;5080492;28;20247;-84
2021/12/01 00:48:24;;;;;;;0.50;0.50;;;5.10;95.90;;;;;;5065914;28;20198;-86
2021/12/01 00:50:52;;;;;;;0.50;0.50;;;5.10;95.90;;;;;;5070518;28;20235;-86
2021/12/01 00:53:19;;;;;;;0.30;0.30;;;5.20;95.10;;;;;;5067740;28;20197;-85
2021/12/01 00:55:48;;;;;;;0.40;0.40;;;5.20;95.10;;;;;;5063836;28;20234;-87
2021/12/01 00:58:15;;;;;;;0.50;0.50;;;5.30;95.10;;;;;;5070284;28;20201;-86
2021/12/01 01:00:48;;;;;;;0.60;0.50;;;5.30;95.10;;;;;;5069156;28;20217;-86
2021/12/01 01:03:16;;;;;;;0.30;0.30;;;5.30;94.90;;;;;;5062858;28;20284;-85
2021/12/01 01:05:43;;;;;;;0.50;0.50;;;5.30;95.10;;;;;;5076168;28;20233;-86
2021/12/01 01:08:10;;;;;;;0.43;0.43;;;5.20;95.10;;;;;;5077131;28;20209;-85
2021/12/01 01:11:09;;;;;;;0.40;0.40;;;5.30;94.30;;;;;;5076088;28;20229;-87
2021/12/01 01:16:25;;;;;;;0.40;0.40;;;5.50;93.60;;;;;;5075780;28;20275;-86
2021/12/01 01:18:57;;;;;;;0.40;0.40;;;5.60;93.10;;;;;;5076473;28;20205;-87
2021/12/01 01:21:25;;;;;;;0.30;0.30;;;5.60;93.10;;;;;;5076052;28;20237;-86
2021/12/01 01:23:53;;;;;;;0.40;0.40;;;5.60;92.50;;;;;;5073967;28;20243;-87
2021/12/01 01:26:22;;;;;;;0.47;0.37;;;5.60;92.60;;;;;;5063728;28;20227;-86
2021/12/01 01:28:49;;;;;;;0.30;0.30;;;5.70;92.30;;;;;;5068866;28;20202;-86
2021/12/01 01:31:20;;;;;;;0.40;0.40;;;5.70;92.50;;;;;;5066213;28;20258;-87
2021/12/01 01:33:49;;;;;;;0.30;0.30;;;5.70;92.50;;;;;;5059793;28;20198;-86
2021/12/01 01:36:16;;;;;;;0.33;0.33;;;5.70;92.50;;;;;;5064880;28;20208;-87
2021/12/01 01:38:45;;;;;;;0.63;0.47;;;5.70;92.50;;;;;;5075955;28;20198;-86
2021/12/01 01:41:13;;;;;;;1.40;0.50;;;5.80;92.20;;;;;;5076012;28;20190;-86
2021/12/01 01:43:42;;;;;;;0.90;0.50;;;5.80;91.90;;;;;;5066866;28;20225;-86
2021/12/01 01:46:10;;;;;;;0.30;0.30;;;5.90;91.70;;;;;;5056287;28;20642;-86
2021/12/01 01:48:47;;;;;;;0.30;0.30;;;5.80;91.90;;;;;;5062359;28;20201;-87
2021/12/01 01:51:23;;;;;;;0.40;0.40;;;5.80;91.80;;;;;;5057238;28;20204;-88
2021/12/01 01:53:53;;;;;;;0.40;0.40;;;5.80;91.90;;;;;;5063339;28;20189;-86
2021/12/01 01:56:21;;;;;;;0.30;0.30;;;5.90;91.60;;;;;;5075766;28;20201;-87
2021/12/01 01:58:48;;;;;;;1.23;0.33;;;5.90;91.70;;;;;;5076135;28;20201;-86
2021/12/01 02:01:29;;;;;;;0.40;0.40;;;5.90;91.50;;;;;;5075164;28;20224;-86
2021/12/01 02:03:56;;;;;;;0.40;0.40;;;5.90;91.30;;;;;;5076170;28;20279;-85
2021/12/01 02:06:25;;;;;;;0.40;0.40;;;5.90;91.20;;;;;;5075470;28;20221;-86
2021/12/01 02:08:53;;;;;;;0.37;0.20;;;5.90;91.70;;;;;;5075842;28;20209;-86
2021/12/01 02:11:21;;;;;;;0.40;0.40;;;5.90;91.60;;;;;;5075609;28;20286;-86
2021/12/01 02:13:50;;;;;;;0.83;0.33;;;5.90;91.40;;;;;;5074557;28;20338;-85
2021/12/01 02:16:18;;;;;;;0.50;0.50;;;5.90;91.20;;;;;;5077931;28;20217;-85
2021/12/01 02:18:45;;;;;;;0.40;0.40;;;6.00;91.40;;;;;;5080012;28;20201;-85
2021/12/01 02:21:16;;;;;;;0.50;0.30;;;6.00;91.20;;;;;;5080565;28;20684;-86
2021/12/01 02:23:46;;;;;;;0.30;0.30;;;6.00;91.20;;;;;;5063627;28;20181;-85
2021/12/01 02:26:15;;;;;;;0.37;0.37;;;5.90;91.10;;;;;;5076263;28;20244;-86
2021/12/01 02:28:43;;;;;;;0.40;0.40;;;5.90;91.40;;;;;;5072676;28;20198;-85
2021/12/01 02:31:10;;;;;;;0.30;0.30;;;6.00;91.10;;;;;;5073631;28;20316;-85
2021/12/01 02:33:38;;;;;;;0.43;0.43;;;6.00;90.90;;;;;;5072996;28;20570;-85
2021/12/01 02:36:06;;;;;;;0.20;0.20;;;6.00;90.80;;;;;;5067196;28;20237;-87
2021/12/01 02:38:34;;;;;;;0.40;0.40;;;6.00;91.00;;;;;;5060339;28;20201;-86
2021/12/01 02:41:01;;;;;;;0.40;0.40;;;6.00;91.00;;;;;;5067392;28;20228;-86
2021/12/01 02:43:29;;;;;;;0.50;0.50;;;6.00;90.50;;;;;;5186698;22;20235;-85
2021/12/01 02:45:56;;;;;;;0.27;0.27;;;6.10;90.60;;;;;;5051200;28;20685;-86
2021/12/01 02:48:24;;;;;;;0.37;0.37;;;6.10;90.40;;;;;;5035578;28;20210;-85
2021/12/01 02:50:52;;;;;;;0.30;0.30;;;6.10;90.50;;;;;;5034879;28;20234;-85
2021/12/01 02:53:21;;;;;;;0.40;0.40;;;6.10;90.50;;;;;;5036219;28;20198;-85
2021/12/01 02:55:53;;;;;;;0.30;0.30;;;6.10;90.50;;;;;;5035443;28;20230;-85
2021/12/01 02:58:21;;;;;;;0.30;0.30;;;6.10;90.50;;;;;;5035973;28;20190;-85
2021/12/01 03:00:49;;;;;;;0.67;0.30;;;6.10;90.60;;;;;;5035253;28;20202;-85
2021/12/01 03:03:16;;;;;;;0.50;0.40;;;6.10;90.10;;;;;;5035671;28;20198;-86
2021/12/01 03:05:47;;;;;;;0.50;0.50;;;6.20;90.10;;;;;;5038144;28;20679;-85
2021/12/01 03:08:15;;;;;;;0.33;0.33;;;6.10;90.70;;;;;;5016492;28;20561;-86
2021/12/01 03:14:13;;;;;;;0.40;0.40;;;6.10;90.40;;;;;;5035457;28;20217;-86
2021/12/01 03:16:40;;;;;;;0.40;0.40;;;6.20;90.50;;;;;;5020823;28;20259;-87
2021/12/01 03:19:07;;;;;;;0.30;0.30;;;6.20;90.50;;;;;;5034575;28;20542;-86
2021/12/01 03:21:36;;;;;;;0.30;0.30;;;6.20;90.50;;;;;;5047238;28;20300;-86
2021/12/01 03:24:04;;;;;;;0.30;0.30;;;6.20;90.40;;;;;;5054107;28;20650;-86
2021/12/01 03:26:31;;;;;;;0.40;0.40;;;6.20;90.20;;;;;;5037890;28;20249;-86
2021/12/01 03:28:58;;;;;;;1.10;0.47;;;6.20;90.40;;;;;;5028906;28;20207;-86
2021/12/01 03:31:27;;;;;;;0.60;0.50;;;6.20;90.20;;;;;;5028146;28;20228;-86
2021/12/01 03:33:54;;;;;;;0.30;0.30;;;6.10;90.60;;;;;;5054672;28;20204;-87
2021/12/01 03:36:21;;;;;;;0.40;0.40;;;6.20;90.40;;;;;;5053566;28;20711;-86
2021/12/01 03:38:48;;;;;;;0.40;0.40;;;6.20;90.20;;;;;;5053948;28;20193;-86
2021/12/01 03:41:16;;;;;;;0.30;0.30;;;6.30;90.40;;;;;;5051993;28;20738;-86
2021/12/01 03:43:43;;;;;;;0.50;0.50;;;6.20;90.70;;;;;;5050551;28;20229;-86
2021/12/01 03:46:10;;;;;;;0.50;0.43;;;6.20;90.20;;;;;;5041001;28;20222;-86
2021/12/01 03:48:38;;;;;;;0.60;0.60;;;6.20;90.40;;;;;;5034129;28;20203;-86
2021/12/01 03:51:07;;;;;;;0.30;0.30;;;6.30;90.30;;;;;;5035785;28;20289;-86
2021/12/01 03:53:34;;;;;;;0.37;0.37;;;6.30;90.40;;;;;;5035534;28;20203;-85
2021/12/01 03:56:01;;;;;;;0.50;0.50;;;6.30;90.60;;;;;;5035616;28;20229;-85
2021/12/01 03:58:28;;;;;;;0.50;0.50;;;6.30;90.30;;;;;;5035951;28;20294;-85
2021/12/01 04:00:55;;;;;;;0.47;0.40;;;6.30;90.10;;;;;;5035404;28;20234;-86
2021/12/01 04:03:22;;;;;;;0.63;0.47;;;6.30;90.10;;;;;;5043819;28;20205;-85
2021/12/01 04:05:50;;;;;;;0.43;0.43;;;6.40;89.80;;;;;;5041498;28;20249;-84
2021/12/01 04:08:18;;;;;;;0.50;0.50;;;6.40;90.20;;;;;;5042124;28;20198;-84
2021/12/01 04:10:51;;;;;;;0.60;0.50;;;6.40;89.90;;;;;;5047656;28;20311;-85
2021/12/01 04:13:18;;;;;;;0.50;0.50;;;6.40;89.90;;;;;;5045102;28;20202;-84
2021/12/01 04:15:46;;;;;;;2.90;0.47;;;6.40;90.60;;;;;;5044762;28;20236;-87
2021/12/01 04:18:13;;;;;;;0.50;0.50;;;6.30;91.30;;;;;;5045571;28;20186;-87
2021/12/01 04:20:40;;;;;;;0.53;0.50;;;6.30;91.50;;;;;;5045557;28;20222;-84
2021/12/01 04:23:08;;;;;;;0.87;0.50;;;6.20;91.50;;;;;;5039551;28;20657;-85
2021/12/01 04:25:36;;;;;;;0.40;0.40;;;6.20;91.30;;;;;;5034746;28;20217;-85
2021/12/01 04:28:03;;;;;;;0.47;0.47;;;6.20;91.30;;;;;;5058026;28;20296;-85
2021/12/01 04:30:30;;;;;;;0.60;0.50;;;6.20;91.20;;;;;;5057725;28;20218;-85
2021/12/01 04:32:58;;;;;;;0.40;0.40;;;6.20;91.30;;;;;;5057538;28;20559;-85
2021/12/01 04:35:28;;;;;;;0.80;0.70;;;6.30;91.00;;;;;;5038965;28;20608;-85
2021/12/01 04:38:05;;;;;;;0.30;0.30;;;6.30;91.10;;;;;;5038445;28;20230;-85
2021/12/01 04:40:34;;;;;;;0.40;0.40;;;6.30;90.60;;;;;;5037872;28;20284;-85
2021/12/01 04:48:12;;;;;;;0.43;0.43;;;6.30;90.70;;;;;;5552486;22;20228;-86
2021/12/01 04:50:38;;;;;;;0.50;0.50;;;6.40;90.70;;;;;;5078002;28;20228;-86
2021/12/01 04:54:02;;;;;;;1.20;0.53;;;6.40;90.60;;;;;;5077583;28;20193;-87
2021/12/01 04:56:31;;;;;;;0.80;0.60;;;6.40;90.60;;;;;;5079296;28;20227;-86
2021/12/01 04:58:58;;;;;;;0.30;0.30;;;6.50;90.80;;;;;;5079064;28;20185;-86
2021/12/01 05:01:48;;;;;;;0.60;0.50;;;6.40;90.70;;;;;;5078909;28;20197;-86
2021/12/01 05:04:28;;;;;;;0.50;0.50;;;6.40;90.40;;;;;;5082023;28;20186;-85
2021/12/01 05:10:21;;;;;;;0.50;0.50;;;6.50;90.30;;;;;;5075986;28;20304;-85
2021/12/01 05:12:50;;;;;;;0.50;0.50;;;6.40;90.50;;;;;;5077130;28;20190;-87
2021/12/01 05:15:44;;;;;;;0.40;0.40;;;6.40;90.70;;;;;;5076505;28;20228;-87
2021/12/01 05:21:38;;;;;;;0.40;0.40;;;6.50;90.50;;;;;;5077139;28;20250;-86
2021/12/01 05:24:28;;;;;;;0.60;0.40;;;6.50;90.50;;;;;;5077138;28;20189;-87
2021/12/01 05:27:49;;;;;;;0.60;0.60;;;6.50;90.70;;;;;;5075393;28;20225;-87
2021/12/01 05:30:19;;;;;;;0.50;0.50;;;6.50;90.60;;;;;;5075689;28;20217;-87
2021/12/01 05:32:47;;;;;;;0.50;0.50;;;6.40;90.70;;;;;;5076813;28;20185;-87
2021/12/01 05:38:40;;;;;;;0.50;0.50;;;6.60;90.30;;;;;;5074192;28;20636;-85
2021/12/01 05:41:07;;;;;;;0.50;0.50;;;6.50;90.60;;;;;;5076392;28;20528;-86
2021/12/01 06:01:43;;;;;;;1.00;0.90;;;6.30;92.80;;;;;;6216339;22;20168;-85
2021/12/01 06:04:10;;;;;;;0.70;0.70;;;6.20;93.60;;;;;;5064822;28;20211;-86
2021/12/01 06:06:37;;;;;;;0.60;0.60;;;6.10;94.20;;;;;;5072928;28;20589;-86
2021/12/01 06:09:06;;;;;;;0.60;0.60;;;6.10;94.60;;;;;;5067979;28;20203;-89
2021/12/01 06:11:53;;;;;;;1.07;0.60;;;6.10;94.70;;;;;;5072257;28;20228;-89
2021/12/01 06:14:20;;;;;;;0.67;0.67;;;6.00;95.30;;;;;;5058914;28;20194;-89
2021/12/01 06:16:49;;;;;;;0.83;0.83;;;6.00;95.30;;;;;;5075117;28;20243;-89
2021/12/01 06:19:16;;;;;;;0.80;0.80;;;6.00;95.30;;;;;;5068055;28;20193;-89
2021/12/01 06:21:43;;;;;;;1.27;1.17;;;6.00;95.30;;;;;;5065889;28;20201;-89
2021/12/01 06:24:09;;;;;;;1.53;0.80;;;6.00;95.30;;;;;;5070125;28;20201;-89
2021/12/01 06:26:37;;;;;;;0.90;0.80;;;6.00;95.30;;;;;;5072811;28;20224;-89
2021/12/01 06:29:04;;;;;;;0.67;0.67;;;5.90;95.60;;;;;;5074848;28;20205;-88
2021/12/01 06:31:31;;;;;;;1.27;0.90;;;5.80;96.20;;;;;;5068241;28;20232;-88
2021/12/01 06:34:00;;;;;;;3.10;0.70;;;5.80;96.70;;;;;;5067972;28;20562;-86
2021/12/01 06:36:27;;;;;;;1.00;0.80;;;5.80;96.80;;;;;;5066070;28;20225;-86
2021/12/01 06:38:54;;;;;;;0.80;0.80;;;5.80;97.00;;;;;;5061263;28;20197;-90
2021/12/01 06:41:21;;;;;;;0.90;0.90;;;5.80;97.20;;;;;;5064563;28;20216;-88
2021/12/01 06:43:49;;;;;;;0.70;0.70;;;5.80;96.90;;;;;;5210008;22;20220;-88
2021/12/01 06:46:16;;;;;;;1.00;0.90;;;5.90;96.90;;;;;;5092244;28;20687;-87
2021/12/01 06:48:43;;;;;;;1.47;0.93;;;5.90;96.40;;;;;;5088080;28;20198;-88
2021/12/01 06:51:12;;;;;;;1.10;0.87;;;5.90;96.40;;;;;;5090061;28;20230;-86
2021/12/01 06:53:39;;;;;;;0.67;0.67;;;5.90;96.50;;;;;;5092252;28;20220;-86
2021/12/01 06:56:08;;;;;;;0.93;0.70;;;5.90;96.30;;;;;;5091770;28;20605;-91
2021/12/01 06:58:35;;;;;;;0.80;0.80;;;6.00;96.20;;;;;;5088227;28;20652;-90
2021/12/01 07:01:08;;;;;;;0.87;0.87;;;5.90;96.10;;;;;;5093354;28;20315;-86
2021/12/01 07:03:36;;;;;;;1.07;0.80;;;6.00;95.80;;;;;;5096843;28;20209;-84
2021/12/01 07:06:17;;;;;;;1.00;0.90;;;6.10;95.70;;;;;;5092720;28;20593;-85
2021/12/01 07:08:44;;;;;;;0.87;0.77;;;6.10;95.30;;;;;;5090646;28;20208;-84
2021/12/01 07:11:11;;;;;;;0.90;0.90;;;6.00;95.80;;;;;;5097427;28;20287;-85
2021/12/01 07:16:53;;;;;;;0.90;0.90;;;6.10;95.30;;;;;;5090298;28;20192;-88
2021/12/01 07:19:20;;;;;;;2.73;0.90;;;6.20;95.20;;;;;;5089063;28;20563;-87
2021/12/01 07:21:49;;;;;;;1.17;0.87;;;6.30;94.90;;;;;;5071942;28;20216;-87
2021/12/01 07:24:19;;;;;;;0.80;0.80;;;6.30;94.40;;;;;;5085528;28;20193;-87
2021/12/01 07:26:46;;;;;;;2.30;0.77;;;6.30;93.90;;;;;;5088152;28;20230;-87
2021/12/01 07:29:17;;;;;;;1.03;0.90;;;6.40;93.80;;;;;;5080322;28;20193;-86
2021/12/01 07:31:46;;;;;;;0.90;0.90;;;6.40;93.60;;;;;;5085549;28;20637;-90
2021/12/01 07:34:18;;;;;;;1.23;0.70;;;6.40;93.60;;;;;;5082872;28;20193;-91
2021/12/01 07:36:45;;;;;;;1.00;0.90;;;6.50;93.40;;;;;;5086446;28;20242;-89
2021/12/01 07:39:14;;;;;;;0.80;0.80;;;6.50;93.00;;;;;;5093442;28;20658;-89
2021/12/01 07:41:41;;;;;;;1.20;1.10;;;6.50;93.10;;;;;;5091370;28;20220;-88
2021/12/01 07:44:08;;;;;;;0.80;0.80;;;6.50;93.00;;;;;;5087466;28;20246;-87
2021/12/01 07:46:35;;;;;;;1.03;0.90;;;6.50;93.10;;;;;;5091379;28;20217;-88
2021/12/01 07:49:02;;;;;;;1.10;1.03;;;6.50;92.80;;;;;;5089541;28;20230;-88
2021/12/01 07:51:29;;;;;;;1.20;0.80;;;6.60;92.80;;;;;;5067597;28;20228;-87
2021/12/01 07:53:57;;;;;;;0.77;0.77;;;6.70;92.40;;;;;;5094907;28;20215;-88
2021/12/01 07:56:25;;;;;;;2.20;0.90;;;6.60;91.70;;;;;;5093052;28;20227;-88
2021/12/01 07:58:52;;;;;;;1.47;0.90;;;6.60;91.40;;;;;;5097453;28;20191;-89
2021/12/01 08:01:19;;;;;;;0.63;0.63;;;6.50;90.80;;;;;;5083745;28;20217;-89
2021/12/01 08:03:46;;;;;;;0.90;0.83;;;6.60;90.70;;;;;;5087661;28;20199;-88
2021/12/01 08:06:13;;;;;;;1.67;0.60;;;6.60;90.40;;;;;;5087504;28;20227;-87
2021/12/01 08:08:40;;;;;;;2.43;0.87;;;6.50;90.70;;;;;;5091766;28;20211;-87
2021/12/01 08:11:07;;;;;;;2.10;0.80;;;6.50;90.70;;;;;;5097129;28;20603;-86
2021/12/01 08:14:30;;;;;;;0.60;0.60;;;6.60;90.30;;;;;;5094580;28;20643;-86
2021/12/01 08:16:58;;;;;;;0.80;0.70;;;6.50;90.60;;;;;;5085780;28;20226;-86
2021/12/01 08:19:25;;;;;;;0.80;0.80;;;6.60;90.40;;;;;;5098220;28;20205;-89
2021/12/01 08:21:52;;;;;;;0.80;0.80;;;6.70;90.00;;;;;;5096435;28;20220;-87
2021/12/01 08:24:20;;;;;;;0.97;0.80;;;6.60;90.70;;;;;;5078810;28;20189;-87
2021/12/01 08:26:47;;;;;;;1.03;0.90;;;6.60;90.60;;;;;;5081734;28;20224;-87
2021/12/01 08:29:15;;;;;;;2.20;0.70;;;6.60;90.70;;;;;;5095839;28;20208;-87
2021/12/01 08:31:42;;;;;;;0.90;0.90;;;6.80;90.00;;;;;;5088472;28;20227;-87
2021/12/01 08:34:13;;;;;;;2.83;0.90;;;6.90;90.00;;;;;;5096949;28;20196;-87
2021/12/01 08:36:40;;;;;;;0.90;0.70;;;7.30;88.30;;;;;;5074362;28;20593;-86
2021/12/01 08:39:07;;;;;;;0.85;0.80;;;7.60;85.50;;;;;;5100133;28;20256;-86
2021/12/01 08:41:34;;;;;;;0.98;0.70;;;8.00;83.70;;;;;;5087163;28;20227;-90
2021/12/01 08:44:01;;;;;;;1.00;1.00;;;8.50;79.90;;;;;;5081510;28;20631;-89
2021/12/01 08:46:29;;;;;;;1.33;1.10;;;8.70;79.20;;;;;;5092285;28;20232;-89
2021/12/01 08:49:33;;;;;;;1.05;0.95;;;8.90;75.60;;;;;;5097012;28;20200;-89
2021/12/01 08:52:19;;;;;;;1.25;0.80;;;9.40;69.80;;;;;;5121291;28;20191;-90
2021/12/01 08:54:46;;;;;;;1.10;1.00;;;9.70;69.20;;;;;;5093287;28;20203;-90
2021/12/01 08:57:13;;;;;;;0.65;0.65;;;10.00;60.50;;;;;;5092950;28;20196;-88
2021/12/01 09:00:36;;;;;;;1.40;0.80;;;10.20;59.50;;;;;;5098276;28;20193;-91
2021/12/01 09:03:04;;;;;;;0.95;0.88;;;11.00;56.10;;;;;;5101913;28;20188;-93
2021/12/01 09:16:04;;;;;;;0.98;0.95;;;11.00;51.60;;;;;;5033428;28;20664;-92
2021/12/01 09:19:18;;;;;;;3.67;0.95;;;12.20;44.30;;;;;;5014872;28;20207;-92
2021/12/01 09:21:45;;;;;;;1.33;1.13;;;12.20;41.70;;;;;;5027108;28;20454;-93
2021/12/01 09:24:15;;;;;;;0.70;0.70;;;12.50;40.80;;;;;;5085263;28;20563;-91
2021/12/01 09:26:49;;;;;;;1.75;0.80;;;12.70;38.30;;;;;;5093565;28;20273;-92
2021/12/01 09:29:17;;;;;;;3.67;0.75;;;13.00;37.70;;;;;;5089676;28;20853;-91
2021/12/01 09:31:45;;;;;;;1.17;1.13;;;12.90;38.30;;;;;;5088401;28;20724;-89
2021/12/01 09:34:13;;;;;;;0.60;0.60;;;13.30;36.70;;;;;;5081637;28;20185;-90
2021/12/01 09:40:13;;;;;;;1.17;0.90;;;14.20;34.90;;;;;;5079574;28;20185;-91
2021/12/01 09:42:42;;;;;;;0.65;0.65;;;14.00;33.80;;;;;;5096609;28;20203;-92
2021/12/01 09:45:18;;;;;;;0.73;0.73;;;13.20;34.10;;;;;;5091217;28;20228;-90
2021/12/01 09:47:46;;;;;;;0.80;0.80;;;12.20;37.60;;;;;;5084921;28;20548;-91
2021/12/01 09:50:13;;;;;;;1.60;0.70;;;11.30;41.90;;;;;;5097645;28;20220;-91
2021/12/01 09:52:40;;;;;;;0.65;0.55;;;10.70;47.40;;;;;;5098588;28;20283;-88
2021/12/01 09:55:11;;;;;;;0.70;0.60;;;10.30;49.10;;;;;;5098889;28;20200;-89
2021/12/01 09:57:38;;;;;;;0.95;0.50;;;10.00;51.40;;;;;;5099353;28;20223;-87
2021/12/01 10:10:42;;;;;;;0.50;0.50;;;11.00;47.60;;;;;;5100483;28;20192;-89
2021/12/01 10:20:12;;;;;;;1.40;0.55;;;12.40;40.40;;;;;;5104658;28;20232;-90
2021/12/01 10:22:39;;;;;;;0.60;0.60;;;12.90;35.60;;;;;;5098845;28;20210;-90
2021/12/01 10:25:28;;;;;;;0.75;0.65;;;13.20;34.50;;;;;;5073902;28;20226;-91
2021/12/01 10:27:56;;;;;;;0.75;0.75;;;13.20;34.70;;;;;;5085015;28;20208;-91
2021/12/01 10:30:36;;;;;;;2.20;0.90;;;13.60;34.90;;;;;;5086561;28;20217;-92
2021/12/01 10:33:08;;;;;;;0.73;0.70;;;14.40;31.10;;;;;;5091712;28;20594;-91
2021/12/01 10:35:35;;;;;;;2.78;0.60;;;14.50;29.20;;;;;;5086446;28;20228;-92
2021/12/01 10:38:03;;;;;;;1.35;0.70;;;14.20;29.80;;;;;;5089745;28;20671;-91
2021/12/01 10:40:30;;;;;;;0.63;0.63;;;14.00;28.80;;;;;;5084900;28;20594;-90
2021/12/01 10:43:00;;;;;;;0.70;0.60;;;13.80;29.80;;;;;;5083016;28;20228;-92
2021/12/01 10:45:29;;;;;;;2.47;0.68;;;13.70;31.20;;;;;;5087416;28;20216;-90
2021/12/01 10:47:57;;;;;;;0.50;0.50;;;13.40;32.30;;;;;;5093051;28;20683;-89
2021/12/01 10:50:29;;;;;;;0.68;0.60;;;12.60;33.90;;;;;;5103971;28;20197;-90
2021/12/01 11:00:15;;;;;;;2.55;1.30;;;11.70;39.80;;;;;;5101270;28;20259;-90
2021/12/01 11:02:43;;;;;;;0.40;0.40;;;11.40;40.20;;;;;;5099101;28;20196;-90
2021/12/01 11:05:10;;;;;;;0.70;0.47;;;10.90;42.00;;;;;;5100032;28;20234;-90
2021/12/01 11:11:54;;;;;;;0.65;0.65;;;10.70;47.50;;;;;;5097460;28;20192;-89
2021/12/01 11:14:43;;;;;;;0.80;0.80;;;10.70;46.80;;;;;;5097366;28;20216;-89
2021/12/01 11:24:11;;;;;;;0.50;0.50;;;10.80;46.50;;;;;;5101924;28;20202;-88
2021/12/01 11:26:41;;;;;;;0.73;0.60;;;10.80;45.60;;;;;;5091264;28;20307;-90
2021/12/01 11:29:29;;;;;;;0.50;0.50;;;10.80;46.10;;;;;;5090994;28;20246;-91
2021/12/01 11:31:56;;;;;;;0.50;0.50;;;10.60;47.30;;;;;;5090041;28;20246;-90
2021/12/01 11:38:23;;;;;;;0.52;0.52;;;10.70;47.40;;;;;;5095990;28;20243;-88
2021/12/01 12:05:29;;;;;;;1.42;1.33;;;10.00;54.40;;;;;;5056717;28;20260;-87
2021/12/01 12:08:00;;;;;;;1.80;0.77;;;10.00;54.50;;;;;;5049610;28;20265;-87
2021/12/01 12:10:34;;;;;;;0.70;0.70;;;10.00;55.20;;;;;;5062025;28;20241;-87
2021/12/01 12:13:04;;;;;;;0.75;0.75;;;10.10;55.00;;;;;;5075114;28;20205;-86
2021/12/01 12:15:37;;;;;;;0.88;0.70;;;10.10;56.00;;;;;;5078124;28;20217;-87
2021/12/01 12:19:03;;;;;;;1.20;0.63;;;10.00;57.60;;;;;;5078355;28;20201;-86
2021/12/01 12:21:37;;;;;;;0.75;0.68;;;10.10;55.00;;;;;;5048814;28;20767;-86
2021/12/01 12:24:10;;;;;;;0.63;0.63;;;10.10;56.10;;;;;;5059661;28;20190;-86
2021/12/01 12:26:43;;;;;;;0.93;0.70;;;10.10;55.70;;;;;;5058311;28;20586;-87
2021/12/01 12:29:13;;;;;;;0.70;0.70;;;10.00;55.60;;;;;;5055309;28;20190;-86
2021/12/01 12:31:41;;;;;;;0.80;0.70;;;10.00;57.10;;;;;;5061950;28;20238;-88
2021/12/01 12:34:16;;;;;;;2.38;0.82;;;10.10;57.10;;;;;;5056104;28;20284;-87
2021/12/01 12:36:45;;;;;;;0.60;0.60;;;10.00;59.10;;;;;;5070240;28;20216;-87
2021/12/01 13:21:37;;;;;;;0.57;0.57;;;10.40;55.70;;;;;;5481668;22;20228;-88
2021/12/01 13:24:07;;;;;;;0.60;0.60;;;10.30;56.40;;;;;;5087486;28;20211;-88
2021/12/01 13:26:35;;;;;;;1.08;0.63;;;10.40;55.40;;;;;;5078764;28;20240;-87
2021/12/01 13:29:09;;;;;;;0.60;0.52;;;10.40;55.90;;;;;;5067379;28;20209;-87
2021/12/01 13:31:37;;;;;;;0.63;0.63;;;10.30;56.80;;;;;;5085876;28;20201;-87
2021/12/01 14:07:18;;;;;;;0.95;0.55;;;10.50;52.20;;;;;;5143330;22;20226;-89
2021/12/01 14:12:45;;;;;;;1.33;0.65;;;10.40;51.50;;;;;;5111812;28;20659;-90
2021/12/01 14:15:13;;;;;;;0.60;0.60;;;10.50;49.90;;;;;;5113787;28;20227;-88
2021/12/01 14:17:40;;;;;;;0.60;0.60;;;10.50;49.00;;;;;;5119484;28;20210;-87
2021/12/01 14:20:08;;;;;;;0.63;0.60;;;10.60;49.70;;;;;;5117776;28;20226;-88
2021/12/01 14:22:35;;;;;;;0.75;0.75;;;10.50;51.40;;;;;;5097895;28;20197;-88
2021/12/01 14:25:33;;;;;;;0.50;0.50;;;10.40;50.60;;;;;;5115695;28;20247;-88
2021/12/01 14:28:08;;;;;;;2.25;0.95;;;10.40;52.40;;;;;;5117057;28;20693;-88
2021/12/01 14:30:36;;;;;;;2.05;0.68;;;10.40;52.00;;;;;;5099069;28;20700;-89
2021/12/01 14:33:03;;;;;;;1.33;0.82;;;10.30;52.20;;;;;;5118098;28;20192;-88
2021/12/01 14:35:30;;;;;;;1.30;1.13;;;10.20;53.10;;;;;;5097919;28;20307;-87
2021/12/01 14:38:02;;;;;;;3.03;0.80;;;10.30;52.60;;;;;;5116269;28;20197;-87
2021/12/01 14:40:30;;;;;;;0.88;0.88;;;10.30;51.50;;;;;;5114371;28;20688;-87
2021/12/01 14:43:00;;;;;;;0.80;0.80;;;10.30;52.10;;;;;;5114824;28;20255;-87
2021/12/01 14:45:29;;;;;;;0.65;0.63;;;10.30;52.30;;;;;;5083634;28;20312;-88
2021/12/01 14:48:05;;;;;;;0.82;0.80;;;10.20;51.50;;;;;;5088126;28;20564;-89
2021/12/01 14:50:33;;;;;;;1.75;0.90;;;10.20;52.80;;;;;;5091142;28;20322;-87
2021/12/01 14:53:04;;;;;;;2.08;0.95;;;10.10;52.80;;;;;;5095055;28;20272;-88
2021/12/01 14:55:36;;;;;;;1.42;0.80;;;10.10;53.30;;;;;;5094389;28;20224;-89
2021/12/01 14:58:16;;;;;;;1.08;0.70;;;10.10;51.60;;;;;;5085397;28;20201;-88
2021/12/01 15:01:02;;;;;;;0.90;0.80;;;10.20;50.90;;;;;;5093382;28;20691;-90
2021/12/01 15:03:35;;;;;;;1.65;1.05;;;10.20;50.50;;;;;;5057772;28;20632;-89
2021/12/01 15:06:02;;;;;;;1.95;1.02;;;10.00;51.30;;;;;;5091684;28;20212;-88
2021/12/01 15:08:33;;;;;;;6.47;0.88;;;10.00;52.10;;;;;;5097361;28;20220;-90
2021/12/01 15:11:06;;;;;;;2.17;0.90;;;9.90;53.30;;;;;;5090418;28;20228;-89
2021/12/01 15:13:47;;;;;;;1.50;1.30;;;10.00;50.40;;;;;;5088035;28;20204;-89
2021/12/01 15:16:20;;;;;;;1.88;0.90;;;10.00;49.50;;;;;;5081768;28;20225;-87
2021/12/01 15:18:48;;;;;;;1.63;1.00;;;10.00;49.00;;;;;;5093639;28;20203;-88
2021/12/01 15:21:19;;;;;;;1.08;0.80;;;10.10;48.90;;;;;;5091029;28;20220;-87
2021/12/01 15:23:49;;;;;;;0.85;0.80;;;10.10;51.00;;;;;;5095623;28;20184;-88
2021/12/01 15:26:20;;;;;;;0.70;0.70;;;10.10;48.80;;;;;;5087864;28;20721;-87
2021/12/01 15:29:04;;;;;;;1.08;0.80;;;10.10;46.90;;;;;;5097546;28;20223;-88
2021/12/01 15:31:34;;;;;;;0.60;0.60;;;10.00;48.20;;;;;;5085954;28;20247;-88
2021/12/01 15:34:03;;;;;;;0.77;0.77;;;10.10;46.90;;;;;;5085438;28;20207;-89
2021/12/01 15:36:30;;;;;;;1.33;1.02;;;10.20;47.00;;;;;;5100371;28;20240;-88
2021/12/01 15:39:05;;;;;;;1.02;0.93;;;10.10;46.90;;;;;;5099497;28;20215;-87
2021/12/01 15:41:32;;;;;;;0.68;0.68;;;10.10;46.90;;;;;;5093579;28;20219;-88
2021/12/01 15:43:59;;;;;;;3.13;0.88;;;10.10;46.90;;;;;;5089859;28;20710;-87
2021/12/01 15:47:22;;;;;;;0.82;0.73;;;10.10;46.90;;;;;;5096541;28;20200;-88
2021/12/01 15:50:07;;;;;;;0.93;0.80;;;10.00;46.80;;;;;;5097826;28;20221;-88
2021/12/01 16:00:11;;;;;;;2.50;1.02;;;10.00;46.80;;;;;;5116613;28;20183;-87
2021/12/01 16:02:37;;;;;;;4.78;1.00;;;9.90;48.30;;;;;;5113536;28;20224;-87
2021/12/01 16:05:07;;;;;;;1.65;0.80;;;9.90;47.70;;;;;;5094916;28;20318;-88
2021/12/01 16:07:34;;;;;;;2.38;0.90;;;9.90;48.00;;;;;;5096295;28;20702;-89
2021/12/01 16:10:01;;;;;;;1.88;1.13;;;9.90;46.90;;;;;;5097325;27;20184;-88
2021/12/01 16:12:31;;;;;;;1.10;0.98;;;9.90;48.30;;;;;;5101419;28;20653;-88
2021/12/01 16:14:59;;;;;;;1.17;1.08;;;9.90;46.30;;;;;;5104330;28;20196;-87
2021/12/01 16:18:19;;;;;;;1.27;0.90;;;9.90;47.50;;;;;;5090463;28;20207;-88
2021/12/01 16:34:33;;;;;;;1.17;0.90;;;9.70;48.00;;;;;;5108380;28;20203;-88
2021/12/01 16:56:47;;;;;;;1.50;0.95;;;9.40;52.70;;;;;;5850997;22;20216;-87
2021/12/01 16:59:14;;;;;;;1.13;0.85;;;9.40;53.30;;;;;;5077452;28;20201;-88
2021/12/01 17:01:44;;;;;;;1.13;1.02;;;9.40;55.20;;;;;;5072135;28;20229;-91
2021/12/01 17:04:13;;;;;;;1.63;1.10;;;9.30;54.60;;;;;;5066344;28;20225;-89
2021/12/01 17:06:45;;;;;;;1.58;0.90;;;9.40;56.40;;;;;;5075687;28;20676;-88
2021/12/01 17:09:12;;;;;;;1.33;0.90;;;9.30;57.10;;;;;;5079875;28;20375;-86
2021/12/01 17:11:39;;;;;;;1.45;1.13;;;9.20;58.60;;;;;;5077590;28;20630;-89
2021/12/01 17:14:07;;;;;;;1.35;0.90;;;9.20;60.10;;;;;;5076787;28;20595;-87